sensor_id;sensor_type;location;lat;lon;timestamp;pressure;altitude;pressure_sealevel;temperature;humidity
52983;BME280;48698;45.736;13.926;2022-10-13T00:01:53;98213.91;;;14.73;100.00
52983;BME280;48698;45.736;13.926;2022-10-13T00:06:57;98177.63;;;14.54;100.00
52983;BME280;48698;45.736;13.926;2022-10-13T00:12:00;98210.47;;;14.71;100.00
52983;BME280;48698;45.736;13.926;2022-10-13T00:17:04;98178.69;;;14.51;100.00
52983;BME280;48698;45.736;13.926;2022-10-13T00:22:08;98179.13;;;14.43;100.00
52983;BME280;48698;45.736;13.926;2022-10-13T00:27:11;98060.91;;;13.63;100.00
52983;BME280;48698;45.736;13.926;2022-10-13T00:32:15;97965.59;;;13.03;100.00
52983;BME280;48698;45.736;13.926;2022-10-13T00:37:19;98113.84;;;13.86;100.00
52983;BME280;48698;45.736;13.926;2022-10-13T00:42:25;98116.19;;;13.77;100.00
52983;BME280;48698;45.736;13.926;2022-10-13T00:47:39;98030.09;;;13.26;100.00
52983;BME280;48698;45.736;13.926;2022-10-13T00:53:00;97979.72;;;13.05;100.00
52983;BME280;48698;45.736;13.926;2022-10-13T00:58:07;98194.94;;;14.62;100.00
52983;BME280;48698;45.736;13.926;2022-10-13T01:03:12;97944.13;;;13.06;100.00
52983;BME280;48698;45.736;13.926;2022-10-13T01:08:17;98075.53;;;13.87;100.00
52983;BME280;48698;45.736;13.926;2022-10-13T01:13:39;98189.59;;;14.62;100.00
52983;BME280;48698;45.736;13.926;2022-10-13T01:24:39;98154.41;;;14.24;100.00
52983;BME280;48698;45.736;13.926;2022-10-13T01:40:28;98159.13;;;14.19;100.00
52983;BME280;48698;45.736;13.926;2022-10-13T01:45:37;98158.22;;;14.05;100.00
52983;BME280;48698;45.736;13.926;2022-10-13T01:50:44;98067.09;;;13.32;100.00
52983;BME280;48698;45.736;13.926;2022-10-13T01:55:55;98068.56;;;13.38;100.00
52983;BME280;48698;45.736;13.926;2022-10-13T02:01:13;98099.72;;;13.69;100.00
52983;BME280;48698;45.736;13.926;2022-10-13T02:06:23;97981.66;;;13.18;100.00
52983;BME280;48698;45.736;13.926;2022-10-13T02:11:30;98069.25;;;13.57;100.00
52983;BME280;48698;45.736;13.926;2022-10-13T02:16:41;98027.88;;;13.34;100.00
52983;BME280;48698;45.736;13.926;2022-10-13T02:21:50;97870.00;;;12.65;100.00
52983;BME280;48698;45.736;13.926;2022-10-13T02:26:54;98047.56;;;13.63;100.00
52983;BME280;48698;45.736;13.926;2022-10-13T02:31:59;98004.38;;;13.25;100.00
52983;BME280;48698;45.736;13.926;2022-10-13T02:37:03;98105.91;;;13.69;100.00
52983;BME280;48698;45.736;13.926;2022-10-13T02:42:07;98117.28;;;13.57;100.00
52983;BME280;48698;45.736;13.926;2022-10-13T02:47:10;98070.72;;;13.47;100.00
52983;BME280;48698;45.736;13.926;2022-10-13T02:52:14;97931.88;;;12.70;100.00
52983;BME280;48698;45.736;13.926;2022-10-13T02:57:18;98081.66;;;13.58;100.00
52983;BME280;48698;45.736;13.926;2022-10-13T03:02:22;97893.66;;;12.23;100.00
52983;BME280;48698;45.736;13.926;2022-10-13T03:07:26;97981.75;;;12.68;100.00
52983;BME280;48698;45.736;13.926;2022-10-13T03:12:29;98094.38;;;13.69;100.00
52983;BME280;48698;45.736;13.926;2022-10-13T03:17:34;97883.38;;;12.32;100.00
52983;BME280;48698;45.736;13.926;2022-10-13T03:22:39;97885.06;;;12.18;100.00
52983;BME280;48698;45.736;13.926;2022-10-13T03:27:48;98053.50;;;13.21;100.00
52983;BME280;48698;45.736;13.926;2022-10-13T03:32:52;98037.22;;;13.26;100.00
52983;BME280;48698;45.736;13.926;2022-10-13T03:37:56;97867.34;;;11.84;100.00
52983;BME280;48698;45.736;13.926;2022-10-13T03:43:00;98073.50;;;13.13;100.00
52983;BME280;48698;45.736;13.926;2022-10-13T03:48:05;98090.19;;;13.65;100.00
52983;BME280;48698;45.736;13.926;2022-10-13T03:53:12;97897.66;;;12.47;100.00
52983;BME280;48698;45.736;13.926;2022-10-13T03:58:15;97886.03;;;12.32;100.00
52983;BME280;48698;45.736;13.926;2022-10-13T04:03:31;98078.66;;;13.64;100.00
52983;BME280;48698;45.736;13.926;2022-10-13T04:08:38;97922.34;;;12.66;100.00
52983;BME280;48698;45.736;13.926;2022-10-13T04:13:42;98065.63;;;13.74;100.00
52983;BME280;48698;45.736;13.926;2022-10-13T04:18:59;98111.06;;;14.04;100.00
52983;BME280;48698;45.736;13.926;2022-10-13T04:24:04;97973.91;;;13.14;100.00
52983;BME280;48698;45.736;13.926;2022-10-13T04:29:09;98056.34;;;13.65;100.00
52983;BME280;48698;45.736;13.926;2022-10-13T04:34:14;97836.78;;;12.24;100.00
52983;BME280;48698;45.736;13.926;2022-10-13T04:39:19;97860.09;;;12.36;100.00
52983;BME280;48698;45.736;13.926;2022-10-13T04:44:23;98023.13;;;13.24;100.00
52983;BME280;48698;45.736;13.926;2022-10-13T04:49:27;98100.59;;;13.69;100.00
52983;BME280;48698;45.736;13.926;2022-10-13T04:54:30;97946.94;;;12.71;100.00
52983;BME280;48698;45.736;13.926;2022-10-13T04:59:34;98043.06;;;13.17;100.00
52983;BME280;48698;45.736;13.926;2022-10-13T05:04:37;97823.53;;;12.07;100.00
52983;BME280;48698;45.736;13.926;2022-10-13T05:09:41;98111.72;;;13.62;100.00
52983;BME280;48698;45.736;13.926;2022-10-13T05:14:45;98083.81;;;13.52;100.00
52983;BME280;48698;45.736;13.926;2022-10-13T05:19:48;97952.03;;;12.91;100.00
52983;BME280;48698;45.736;13.926;2022-10-13T05:24:52;98039.31;;;13.21;100.00
52983;BME280;48698;45.736;13.926;2022-10-13T05:29:56;98054.84;;;13.13;100.00
52983;BME280;48698;45.736;13.926;2022-10-13T05:34:59;98011.53;;;12.92;100.00
52983;BME280;48698;45.736;13.926;2022-10-13T05:40:04;98111.09;;;13.41;100.00
52983;BME280;48698;45.736;13.926;2022-10-13T05:45:09;97999.94;;;12.60;100.00
52983;BME280;48698;45.736;13.926;2022-10-13T05:50:13;97944.69;;;12.31;100.00
52983;BME280;48698;45.736;13.926;2022-10-13T05:55:18;97839.03;;;11.66;100.00
52983;BME280;48698;45.736;13.926;2022-10-13T06:00:22;97956.91;;;12.35;100.00
52983;BME280;48698;45.736;13.926;2022-10-13T06:05:26;98037.75;;;13.17;100.00
52983;BME280;48698;45.736;13.926;2022-10-13T06:10:30;98078.31;;;13.55;100.00
52983;BME280;48698;45.736;13.926;2022-10-13T06:15:34;98071.81;;;13.43;100.00
52983;BME280;48698;45.736;13.926;2022-10-13T06:20:37;97904.03;;;12.60;100.00
52983;BME280;48698;45.736;13.926;2022-10-13T06:25:48;98116.00;;;14.11;100.00
52983;BME280;48698;45.736;13.926;2022-10-13T06:30:52;98083.34;;;13.90;100.00
52983;BME280;48698;45.736;13.926;2022-10-13T06:35:59;98121.72;;;14.19;100.00
52983;BME280;48698;45.736;13.926;2022-10-13T06:41:04;98100.47;;;14.18;100.00
52983;BME280;48698;45.736;13.926;2022-10-13T06:46:08;98101.34;;;14.32;100.00
52983;BME280;48698;45.736;13.926;2022-10-13T06:51:13;98054.13;;;14.03;100.00
52983;BME280;48698;45.736;13.926;2022-10-13T06:56:17;97925.63;;;13.34;100.00
52983;BME280;48698;45.736;13.926;2022-10-13T07:01:21;98110.25;;;14.63;100.00
52983;BME280;48698;45.736;13.926;2022-10-13T07:06:25;98082.59;;;14.64;100.00
52983;BME280;48698;45.736;13.926;2022-10-13T07:11:30;98025.75;;;14.46;100.00
52983;BME280;48698;45.736;13.926;2022-10-13T07:16:34;98061.91;;;14.81;100.00
52983;BME280;48698;45.736;13.926;2022-10-13T07:21:37;98057.97;;;14.73;100.00
52983;BME280;48698;45.736;13.926;2022-10-13T07:26:41;98044.91;;;14.96;100.00
52983;BME280;48698;45.736;13.926;2022-10-13T07:31:45;97994.66;;;14.73;100.00
52983;BME280;48698;45.736;13.926;2022-10-13T07:36:48;97956.66;;;14.54;100.00
52983;BME280;48698;45.736;13.926;2022-10-13T07:41:52;97884.91;;;14.34;100.00
52983;BME280;48698;45.736;13.926;2022-10-13T07:46:56;98093.25;;;15.64;100.00
52983;BME280;48698;45.736;13.926;2022-10-13T07:51:59;98001.31;;;15.23;100.00
52983;BME280;48698;45.736;13.926;2022-10-13T07:57:03;98088.75;;;15.91;100.00
52983;BME280;48698;45.736;13.926;2022-10-13T08:02:08;97824.19;;;14.36;100.00
52983;BME280;48698;45.736;13.926;2022-10-13T08:07:12;98063.22;;;15.86;100.00
52983;BME280;48698;45.736;13.926;2022-10-13T08:12:16;98017.63;;;15.87;100.00
52983;BME280;48698;45.736;13.926;2022-10-13T08:17:20;97831.84;;;14.83;100.00
52983;BME280;48698;45.736;13.926;2022-10-13T08:22:24;98082.63;;;16.43;100.00
52983;BME280;48698;45.736;13.926;2022-10-13T08:27:30;97848.06;;;15.21;100.00
52983;BME280;48698;45.736;13.926;2022-10-13T08:32:52;97907.81;;;15.87;100.00
52983;BME280;48698;45.736;13.926;2022-10-13T08:37:55;97929.59;;;16.46;100.00
52983;BME280;48698;45.736;13.926;2022-10-13T08:42:59;98030.81;;;17.31;100.00
52983;BME280;48698;45.736;13.926;2022-10-13T08:53:29;98092.31;;;18.32;100.00
52983;BME280;48698;45.736;13.926;2022-10-13T08:58:35;97912.88;;;17.40;100.00
52983;BME280;48698;45.736;13.926;2022-10-13T09:09:12;97862.69;;;17.30;100.00
52983;BME280;48698;45.736;13.926;2022-10-13T09:19:29;98081.72;;;18.76;100.00
52983;BME280;48698;45.736;13.926;2022-10-13T09:24:36;97945.88;;;18.25;100.00
52983;BME280;48698;45.736;13.926;2022-10-13T09:29:40;98054.19;;;19.41;100.00
52983;BME280;48698;45.736;13.926;2022-10-13T09:34:44;98076.44;;;19.76;100.00
52983;BME280;48698;45.736;13.926;2022-10-13T09:40:00;98073.47;;;19.90;100.00
52983;BME280;48698;45.736;13.926;2022-10-13T09:45:16;97886.28;;;18.97;100.00
52983;BME280;48698;45.736;13.926;2022-10-13T09:50:26;97971.88;;;19.26;100.00
52983;BME280;48698;45.736;13.926;2022-10-13T09:55:33;98068.28;;;20.09;100.00
52983;BME280;48698;45.736;13.926;2022-10-13T10:00:37;98073.13;;;19.84;100.00
52983;BME280;48698;45.736;13.926;2022-10-13T10:05:52;98067.69;;;20.70;100.00
52983;BME280;48698;45.736;13.926;2022-10-13T10:11:04;98023.22;;;20.64;100.00
52983;BME280;48698;45.736;13.926;2022-10-13T10:16:27;98049.81;;;20.37;100.00
52983;BME280;48698;45.736;13.926;2022-10-13T10:21:48;97967.09;;;20.26;100.00
52983;BME280;48698;45.736;13.926;2022-10-13T10:26:59;98042.22;;;20.62;100.00
52983;BME280;48698;45.736;13.926;2022-10-13T10:48:19;97968.06;;;20.25;100.00
52983;BME280;48698;45.736;13.926;2022-10-13T10:58:58;98006.53;;;20.38;100.00
52983;BME280;48698;45.736;13.926;2022-10-13T11:19:49;97940.47;;;20.33;100.00
52983;BME280;48698;45.736;13.926;2022-10-13T11:24:59;97991.38;;;20.88;100.00
52983;BME280;48698;45.736;13.926;2022-10-13T11:30:05;97955.47;;;20.67;100.00
52983;BME280;48698;45.736;13.926;2022-10-13T11:35:28;97891.75;;;20.55;100.00
52983;BME280;48698;45.736;13.926;2022-10-13T11:51:30;97952.91;;;21.17;100.00
52983;BME280;48698;45.736;13.926;2022-10-13T12:02:05;97951.25;;;21.35;100.00
52983;BME280;48698;45.736;13.926;2022-10-13T12:07:14;97929.75;;;21.24;100.00
52983;BME280;48698;45.736;13.926;2022-10-13T12:12:20;97799.81;;;20.68;100.00
52983;BME280;48698;45.736;13.926;2022-10-13T12:22:29;97871.78;;;21.28;100.00
52983;BME280;48698;45.736;13.926;2022-10-13T12:27:45;97770.38;;;20.25;100.00
52983;BME280;48698;45.736;13.926;2022-10-13T12:32:54;97806.41;;;20.84;100.00
52983;BME280;48698;45.736;13.926;2022-10-13T12:38:01;97903.34;;;21.37;100.00
52983;BME280;48698;45.736;13.926;2022-10-13T12:43:06;97722.00;;;20.33;100.00
52983;BME280;48698;45.736;13.926;2022-10-13T12:48:30;97901.81;;;21.63;100.00
52983;BME280;48698;45.736;13.926;2022-10-13T12:53:37;97873.66;;;21.56;100.00
52983;BME280;48698;45.736;13.926;2022-10-13T12:58:41;97727.94;;;20.67;100.00
52983;BME280;48698;45.736;13.926;2022-10-13T13:03:52;97891.47;;;21.19;100.00
52983;BME280;48698;45.736;13.926;2022-10-13T13:09:20;97878.16;;;21.36;100.00
52983;BME280;48698;45.736;13.926;2022-10-13T13:14:45;97891.69;;;20.96;100.00
52983;BME280;48698;45.736;13.926;2022-10-13T13:19:54;97886.31;;;21.06;100.00
52983;BME280;48698;45.736;13.926;2022-10-13T13:24:59;97624.50;;;19.16;100.00
52983;BME280;48698;45.736;13.926;2022-10-13T13:30:03;97689.94;;;19.48;100.00
52983;BME280;48698;45.736;13.926;2022-10-13T13:35:06;97876.69;;;20.83;100.00
52983;BME280;48698;45.736;13.926;2022-10-13T13:40:15;97885.03;;;20.70;100.00
52983;BME280;48698;45.736;13.926;2022-10-13T13:45:21;97873.94;;;20.63;100.00
52983;BME280;48698;45.736;13.926;2022-10-13T13:50:30;97611.38;;;19.02;100.00
52983;BME280;48698;45.736;13.926;2022-10-13T13:55:34;97679.75;;;19.52;100.00
52983;BME280;48698;45.736;13.926;2022-10-13T14:00:38;97771.41;;;20.12;100.00
52983;BME280;48698;45.736;13.926;2022-10-13T14:05:41;97667.53;;;19.48;100.00
52983;BME280;48698;45.736;13.926;2022-10-13T14:10:44;97853.00;;;20.56;100.00
52983;BME280;48698;45.736;13.926;2022-10-13T14:15:59;97861.72;;;20.69;100.00
52983;BME280;48698;45.736;13.926;2022-10-13T14:21:05;97835.91;;;20.46;100.00
52983;BME280;48698;45.736;13.926;2022-10-13T14:26:09;97755.78;;;20.06;100.00
52983;BME280;48698;45.736;13.926;2022-10-13T14:31:12;97868.22;;;20.57;100.00
52983;BME280;48698;45.736;13.926;2022-10-13T14:36:16;97675.09;;;19.54;100.00
52983;BME280;48698;45.736;13.926;2022-10-13T14:41:20;97854.44;;;20.60;100.00
52983;BME280;48698;45.736;13.926;2022-10-13T14:46:24;97831.53;;;20.24;100.00
52983;BME280;48698;45.736;13.926;2022-10-13T14:51:27;97834.00;;;20.27;100.00
52983;BME280;48698;45.736;13.926;2022-10-13T14:56:31;97853.91;;;19.94;100.00
52983;BME280;48698;45.736;13.926;2022-10-13T15:01:45;97855.75;;;19.94;100.00
52983;BME280;48698;45.736;13.926;2022-10-13T15:06:53;97837.88;;;19.40;100.00
52983;BME280;48698;45.736;13.926;2022-10-13T15:11:56;97821.69;;;18.97;100.00
52983;BME280;48698;45.736;13.926;2022-10-13T15:17:01;97725.19;;;18.17;100.00
52983;BME280;48698;45.736;13.926;2022-10-13T15:22:05;97606.56;;;17.21;100.00
52983;BME280;48698;45.736;13.926;2022-10-13T15:27:08;97728.53;;;17.52;100.00
52983;BME280;48698;45.736;13.926;2022-10-13T15:32:14;97714.94;;;17.66;100.00
52983;BME280;48698;45.736;13.926;2022-10-13T15:37:20;97782.47;;;17.95;100.00
52983;BME280;48698;45.736;13.926;2022-10-13T15:42:24;97815.34;;;17.98;100.00
52983;BME280;48698;45.736;13.926;2022-10-13T15:47:27;97802.31;;;17.70;100.00
52983;BME280;48698;45.736;13.926;2022-10-13T15:52:31;97769.31;;;17.57;100.00
52983;BME280;48698;45.736;13.926;2022-10-13T15:57:37;97853.31;;;17.94;100.00
52983;BME280;48698;45.736;13.926;2022-10-13T16:02:43;97790.72;;;17.35;100.00
52983;BME280;48698;45.736;13.926;2022-10-13T16:07:46;97775.78;;;16.96;100.00
52983;BME280;48698;45.736;13.926;2022-10-13T16:12:50;97766.19;;;16.57;100.00
52983;BME280;48698;45.736;13.926;2022-10-13T16:17:54;97840.75;;;16.88;100.00
52983;BME280;48698;45.736;13.926;2022-10-13T16:22:57;97807.78;;;16.63;100.00
52983;BME280;48698;45.736;13.926;2022-10-13T16:28:01;97655.66;;;15.81;100.00
52983;BME280;48698;45.736;13.926;2022-10-13T16:33:04;97809.09;;;16.57;100.00
52983;BME280;48698;45.736;13.926;2022-10-13T16:38:08;97561.69;;;15.10;100.00
52983;BME280;48698;45.736;13.926;2022-10-13T16:43:15;97801.19;;;16.30;100.00
52983;BME280;48698;45.736;13.926;2022-10-13T16:48:18;97771.56;;;16.32;100.00
52983;BME280;48698;45.736;13.926;2022-10-13T16:53:22;97678.91;;;15.55;100.00
52983;BME280;48698;45.736;13.926;2022-10-13T16:58:26;97727.16;;;15.41;100.00
52983;BME280;48698;45.736;13.926;2022-10-13T17:03:29;97797.34;;;15.96;100.00
52983;BME280;48698;45.736;13.926;2022-10-13T17:08:33;97802.28;;;16.02;100.00
52983;BME280;48698;45.736;13.926;2022-10-13T17:13:37;97781.50;;;15.93;100.00
52983;BME280;48698;45.736;13.926;2022-10-13T17:18:41;97817.38;;;16.16;100.00
52983;BME280;48698;45.736;13.926;2022-10-13T17:23:45;97861.06;;;16.54;100.00
52983;BME280;48698;45.736;13.926;2022-10-13T17:28:50;97848.22;;;16.47;100.00
52983;BME280;48698;45.736;13.926;2022-10-13T17:33:54;97827.34;;;16.01;100.00
52983;BME280;48698;45.736;13.926;2022-10-13T17:39:03;97758.38;;;14.88;100.00
52983;BME280;48698;45.736;13.926;2022-10-13T17:44:09;97691.41;;;14.77;100.00
52983;BME280;48698;45.736;13.926;2022-10-13T17:49:15;97610.16;;;14.14;100.00
52983;BME280;48698;45.736;13.926;2022-10-13T17:54:20;97861.50;;;15.46;100.00
52983;BME280;48698;45.736;13.926;2022-10-13T17:59:23;97775.66;;;14.70;100.00
52983;BME280;48698;45.736;13.926;2022-10-13T18:04:27;97871.16;;;14.54;100.00
52983;BME280;48698;45.736;13.926;2022-10-13T18:09:32;97578.28;;;13.01;100.00
52983;BME280;48698;45.736;13.926;2022-10-13T18:14:36;97744.63;;;14.41;100.00
52983;BME280;48698;45.736;13.926;2022-10-13T18:19:40;97649.75;;;13.24;100.00
52983;BME280;48698;45.736;13.926;2022-10-13T18:24:45;97837.66;;;13.18;100.00
52983;BME280;48698;45.736;13.926;2022-10-13T18:29:49;97805.56;;;12.59;100.00
52983;BME280;48698;45.736;13.926;2022-10-13T18:34:53;97779.16;;;12.38;100.00
52983;BME280;48698;45.736;13.926;2022-10-13T18:39:58;97890.84;;;13.51;100.00
52983;BME280;48698;45.736;13.926;2022-10-13T18:45:02;97873.16;;;13.64;100.00
52983;BME280;48698;45.736;13.926;2022-10-13T18:50:06;97827.88;;;12.87;100.00
52983;BME280;48698;45.736;13.926;2022-10-13T18:55:10;97722.47;;;12.05;100.00
52983;BME280;48698;45.736;13.926;2022-10-13T19:00:14;97844.13;;;12.99;100.00
52983;BME280;48698;45.736;13.926;2022-10-13T19:05:18;97789.56;;;12.27;100.00
52983;BME280;48698;45.736;13.926;2022-10-13T19:10:22;97897.59;;;12.80;100.00
52983;BME280;48698;45.736;13.926;2022-10-13T19:15:25;97812.75;;;12.57;100.00
52983;BME280;48698;45.736;13.926;2022-10-13T19:20:29;97784.22;;;12.43;100.00
52983;BME280;48698;45.736;13.926;2022-10-13T19:25:32;97774.09;;;12.34;100.00
52983;BME280;48698;45.736;13.926;2022-10-13T19:30:37;97838.16;;;13.25;100.00
52983;BME280;48698;45.736;13.926;2022-10-13T19:35:44;97884.72;;;13.93;100.00
52983;BME280;48698;45.736;13.926;2022-10-13T19:40:47;97873.44;;;14.60;100.00
52983;BME280;48698;45.736;13.926;2022-10-13T19:45:52;97811.50;;;14.54;100.00
52983;BME280;48698;45.736;13.926;2022-10-13T19:51:04;97823.44;;;14.48;100.00
52983;BME280;48698;45.736;13.926;2022-10-13T19:56:21;97736.81;;;14.10;100.00
52983;BME280;48698;45.736;13.926;2022-10-13T20:01:26;97853.53;;;14.78;100.00
52983;BME280;48698;45.736;13.926;2022-10-13T20:06:30;97640.97;;;13.50;100.00
52983;BME280;48698;45.736;13.926;2022-10-13T20:11:34;97699.88;;;13.75;100.00
52983;BME280;48698;45.736;13.926;2022-10-13T20:16:38;97795.59;;;14.38;100.00
52983;BME280;48698;45.736;13.926;2022-10-13T20:21:42;97789.25;;;14.53;100.00
52983;BME280;48698;45.736;13.926;2022-10-13T20:26:46;97827.53;;;14.54;100.00
52983;BME280;48698;45.736;13.926;2022-10-13T20:31:53;97646.91;;;13.55;100.00
52983;BME280;48698;45.736;13.926;2022-10-13T20:36:57;97692.16;;;13.85;100.00
52983;BME280;48698;45.736;13.926;2022-10-13T20:42:01;97683.28;;;13.56;100.00
52983;BME280;48698;45.736;13.926;2022-10-13T20:47:05;97824.75;;;14.55;100.00
52983;BME280;48698;45.736;13.926;2022-10-13T20:52:09;97824.19;;;14.50;100.00
52983;BME280;48698;45.736;13.926;2022-10-13T20:57:12;97816.19;;;14.50;100.00
52983;BME280;48698;45.736;13.926;2022-10-13T21:02:16;97827.06;;;14.47;100.00
52983;BME280;48698;45.736;13.926;2022-10-13T21:07:19;97667.94;;;13.31;100.00
52983;BME280;48698;45.736;13.926;2022-10-13T21:12:24;97588.47;;;12.94;100.00
52983;BME280;48698;45.736;13.926;2022-10-13T21:17:30;97685.88;;;13.58;100.00
52983;BME280;48698;45.736;13.926;2022-10-13T21:22:41;97789.00;;;14.43;100.00
52983;BME280;48698;45.736;13.926;2022-10-13T21:27:45;97834.25;;;14.73;100.00
52983;BME280;48698;45.736;13.926;2022-10-13T21:32:50;97837.41;;;14.80;100.00
52983;BME280;48698;45.736;13.926;2022-10-13T21:38:13;97832.41;;;14.88;100.00
52983;BME280;48698;45.736;13.926;2022-10-13T21:43:19;97705.03;;;14.19;100.00
52983;BME280;48698;45.736;13.926;2022-10-13T21:48:31;97664.75;;;13.95;100.00
52983;BME280;48698;45.736;13.926;2022-10-13T21:53:35;97784.47;;;14.85;100.00
52983;BME280;48698;45.736;13.926;2022-10-13T21:58:54;97826.53;;;15.22;100.00
52983;BME280;48698;45.736;13.926;2022-10-13T22:04:00;97799.03;;;14.81;100.00
52983;BME280;48698;45.736;13.926;2022-10-13T22:09:05;97784.47;;;14.58;100.00
52983;BME280;48698;45.736;13.926;2022-10-13T22:14:09;97770.91;;;14.61;100.00
52983;BME280;48698;45.736;13.926;2022-10-13T22:19:13;97824.53;;;14.99;100.00
52983;BME280;48698;45.736;13.926;2022-10-13T22:24:19;97792.31;;;14.61;100.00
52983;BME280;48698;45.736;13.926;2022-10-13T22:29:23;97795.34;;;14.55;100.00
52983;BME280;48698;45.736;13.926;2022-10-13T22:34:27;97746.00;;;13.91;100.00
52983;BME280;48698;45.736;13.926;2022-10-13T22:39:31;97803.69;;;13.36;100.00
52983;BME280;48698;45.736;13.926;2022-10-13T22:44:34;97732.28;;;12.36;100.00
52983;BME280;48698;45.736;13.926;2022-10-13T22:49:38;97743.34;;;12.13;100.00
52983;BME280;48698;45.736;13.926;2022-10-13T22:54:41;97669.94;;;11.45;100.00
52983;BME280;48698;45.736;13.926;2022-10-13T22:59:45;97867.25;;;12.51;100.00
52983;BME280;48698;45.736;13.926;2022-10-13T23:04:48;97589.00;;;10.84;100.00
52983;BME280;48698;45.736;13.926;2022-10-13T23:09:52;97589.41;;;10.27;100.00
52983;BME280;48698;45.736;13.926;2022-10-13T23:14:56;97799.53;;;11.24;100.00
52983;BME280;48698;45.736;13.926;2022-10-13T23:20:09;97735.41;;;10.61;100.00
52983;BME280;48698;45.736;13.926;2022-10-13T23:25:13;97659.84;;;10.15;100.00
52983;BME280;48698;45.736;13.926;2022-10-13T23:30:18;97844.00;;;12.22;100.00
52983;BME280;48698;45.736;13.926;2022-10-13T23:35:21;97824.94;;;12.92;100.00
52983;BME280;48698;45.736;13.926;2022-10-13T23:40:25;97754.44;;;11.05;100.00
52983;BME280;48698;45.736;13.926;2022-10-13T23:45:31;97780.47;;;10.99;100.00
52983;BME280;48698;45.736;13.926;2022-10-13T23:50:35;97607.53;;;9.64;100.00
52983;BME280;48698;45.736;13.926;2022-10-13T23:55:40;97731.41;;;9.79;100.00
